sensor_id;sensor_type;location;lat;lon;timestamp;pressure;altitude;pressure_sealevel;temperature;humidity
41078;BME280;26823;42.662;23.352;2023-05-10T00:00:32;95031.72;;;7.51;100.00
41078;BME280;26823;42.662;23.352;2023-05-10T00:02:58;95051.72;;;7.61;100.00
41078;BME280;26823;42.662;23.352;2023-05-10T00:05:23;95033.56;;;7.51;100.00
41078;BME280;26823;42.662;23.352;2023-05-10T00:07:48;95032.50;;;7.52;100.00
41078;BME280;26823;42.662;23.352;2023-05-10T00:10:14;95044.91;;;7.53;100.00
41078;BME280;26823;42.662;23.352;2023-05-10T00:12:39;95041.69;;;7.56;100.00
41078;BME280;26823;42.662;23.352;2023-05-10T00:15:05;95032.03;;;7.55;100.00
41078;BME280;26823;42.662;23.352;2023-05-10T00:17:31;95028.75;;;7.53;100.00
41078;BME280;26823;42.662;23.352;2023-05-10T00:19:56;95025.75;;;7.49;100.00
41078;BME280;26823;42.662;23.352;2023-05-10T00:22:22;95015.50;;;7.46;100.00
41078;BME280;26823;42.662;23.352;2023-05-10T00:24:48;95025.31;;;7.58;100.00
41078;BME280;26823;42.662;23.352;2023-05-10T00:27:13;95013.78;;;7.35;100.00
41078;BME280;26823;42.662;23.352;2023-05-10T00:29:38;95014.31;;;7.37;100.00
41078;BME280;26823;42.662;23.352;2023-05-10T00:32:04;95011.09;;;7.35;100.00
41078;BME280;26823;42.662;23.352;2023-05-10T00:34:30;95025.91;;;7.38;100.00
41078;BME280;26823;42.662;23.352;2023-05-10T00:36:55;95034.03;;;7.43;100.00
41078;BME280;26823;42.662;23.352;2023-05-10T00:39:21;95030.28;;;7.44;100.00
41078;BME280;26823;42.662;23.352;2023-05-10T00:41:46;95025.28;;;7.53;100.00
41078;BME280;26823;42.662;23.352;2023-05-10T00:44:12;95011.28;;;7.56;100.00
41078;BME280;26823;42.662;23.352;2023-05-10T00:46:37;95012.88;;;7.51;100.00
41078;BME280;26823;42.662;23.352;2023-05-10T00:49:03;95018.03;;;7.58;100.00
41078;BME280;26823;42.662;23.352;2023-05-10T00:51:29;95005.59;;;7.52;100.00
41078;BME280;26823;42.662;23.352;2023-05-10T00:53:56;95012.25;;;7.44;100.00
41078;BME280;26823;42.662;23.352;2023-05-10T00:56:21;95008.44;;;7.40;100.00
41078;BME280;26823;42.662;23.352;2023-05-10T00:58:48;95017.69;;;7.49;100.00
41078;BME280;26823;42.662;23.352;2023-05-10T01:01:14;95008.75;;;7.44;100.00
41078;BME280;26823;42.662;23.352;2023-05-10T01:03:40;95020.69;;;7.53;100.00
41078;BME280;26823;42.662;23.352;2023-05-10T01:06:06;95020.72;;;7.58;100.00
41078;BME280;26823;42.662;23.352;2023-05-10T01:08:31;95010.63;;;7.43;100.00
41078;BME280;26823;42.662;23.352;2023-05-10T01:10:57;95008.66;;;7.33;100.00
41078;BME280;26823;42.662;23.352;2023-05-10T01:15:56;95012.78;;;7.41;100.00
41078;BME280;26823;42.662;23.352;2023-05-10T01:18:21;95014.72;;;7.51;100.00
41078;BME280;26823;42.662;23.352;2023-05-10T01:20:50;95012.69;;;7.63;100.00
41078;BME280;26823;42.662;23.352;2023-05-10T01:23:30;95009.06;;;7.47;100.00
41078;BME280;26823;42.662;23.352;2023-05-10T01:34:35;95005.03;;;7.23;100.00
41078;BME280;26823;42.662;23.352;2023-05-10T01:37:08;94993.22;;;7.24;100.00
41078;BME280;26823;42.662;23.352;2023-05-10T01:39:46;95000.91;;;7.42;100.00
41078;BME280;26823;42.662;23.352;2023-05-10T01:42:20;94992.53;;;7.33;100.00
41078;BME280;26823;42.662;23.352;2023-05-10T01:50:18;94977.47;;;7.38;100.00
41078;BME280;26823;42.662;23.352;2023-05-10T01:52:50;94992.00;;;7.37;100.00
41078;BME280;26823;42.662;23.352;2023-05-10T01:55:20;94989.94;;;7.22;100.00
41078;BME280;26823;42.662;23.352;2023-05-10T01:57:48;94997.31;;;7.31;100.00
41078;BME280;26823;42.662;23.352;2023-05-10T02:00:17;94985.88;;;7.19;100.00
41078;BME280;26823;42.662;23.352;2023-05-10T02:02:46;94987.53;;;7.20;100.00
41078;BME280;26823;42.662;23.352;2023-05-10T02:05:13;94988.44;;;7.31;100.00
41078;BME280;26823;42.662;23.352;2023-05-10T02:07:40;94987.53;;;7.20;100.00
41078;BME280;26823;42.662;23.352;2023-05-10T02:10:08;94996.28;;;7.10;100.00
41078;BME280;26823;42.662;23.352;2023-05-10T02:12:53;94993.66;;;7.15;100.00
41078;BME280;26823;42.662;23.352;2023-05-10T02:15:23;94978.72;;;7.02;100.00
41078;BME280;26823;42.662;23.352;2023-05-10T02:17:50;95001.44;;;6.90;100.00
41078;BME280;26823;42.662;23.352;2023-05-10T02:20:16;95004.06;;;6.84;100.00
41078;BME280;26823;42.662;23.352;2023-05-10T02:22:45;94997.38;;;6.87;100.00
41078;BME280;26823;42.662;23.352;2023-05-10T02:25:13;94975.56;;;6.61;98.60
41078;BME280;26823;42.662;23.352;2023-05-10T02:27:41;94994.13;;;6.63;97.85
41078;BME280;26823;42.662;23.352;2023-05-10T02:30:07;95008.41;;;6.68;96.12
41078;BME280;26823;42.662;23.352;2023-05-10T02:32:35;95005.41;;;6.65;94.08
41078;BME280;26823;42.662;23.352;2023-05-10T02:35:02;95002.34;;;6.56;94.46
41078;BME280;26823;42.662;23.352;2023-05-10T02:37:29;95003.03;;;6.46;93.37
41078;BME280;26823;42.662;23.352;2023-05-10T02:39:56;95006.06;;;6.33;94.05
41078;BME280;26823;42.662;23.352;2023-05-10T02:42:26;94996.38;;;6.32;94.22
41078;BME280;26823;42.662;23.352;2023-05-10T02:44:56;95000.69;;;6.33;92.79
41078;BME280;26823;42.662;23.352;2023-05-10T02:47:22;94985.81;;;6.25;91.46
41078;BME280;26823;42.662;23.352;2023-05-10T02:49:48;94978.66;;;6.31;91.31
41078;BME280;26823;42.662;23.352;2023-05-10T02:52:16;94987.06;;;6.00;92.42
41078;BME280;26823;42.662;23.352;2023-05-10T02:54:54;94982.84;;;6.04;93.69
41078;BME280;26823;42.662;23.352;2023-05-10T02:57:27;94983.63;;;6.05;92.03
41078;BME280;26823;42.662;23.352;2023-05-10T02:59:54;94978.84;;;6.07;92.23
41078;BME280;26823;42.662;23.352;2023-05-10T03:02:20;94998.03;;;6.16;92.18
41078;BME280;26823;42.662;23.352;2023-05-10T03:04:46;94990.38;;;6.08;92.42
41078;BME280;26823;42.662;23.352;2023-05-10T03:07:11;94991.25;;;5.96;91.97
41078;BME280;26823;42.662;23.352;2023-05-10T03:09:37;94994.19;;;6.12;93.39
41078;BME280;26823;42.662;23.352;2023-05-10T03:20:10;94985.00;;;6.08;92.78
41078;BME280;26823;42.662;23.352;2023-05-10T03:22:49;94998.63;;;6.01;91.97
41078;BME280;26823;42.662;23.352;2023-05-10T03:25:17;94982.00;;;5.87;91.79
41078;BME280;26823;42.662;23.352;2023-05-10T03:27:44;95000.56;;;6.06;92.65
41078;BME280;26823;42.662;23.352;2023-05-10T03:30:12;94989.19;;;5.98;92.48
41078;BME280;26823;42.662;23.352;2023-05-10T03:32:38;95020.66;;;6.20;92.48
41078;BME280;26823;42.662;23.352;2023-05-10T03:35:11;94999.81;;;6.27;91.56
41078;BME280;26823;42.662;23.352;2023-05-10T03:37:37;95007.06;;;6.10;90.64
41078;BME280;26823;42.662;23.352;2023-05-10T03:40:03;95001.38;;;6.06;91.08
41078;BME280;26823;42.662;23.352;2023-05-10T03:42:29;95020.97;;;6.07;92.78
41078;BME280;26823;42.662;23.352;2023-05-10T03:44:54;95018.16;;;6.13;92.10
41078;BME280;26823;42.662;23.352;2023-05-10T03:47:20;94985.25;;;5.89;93.22
41078;BME280;26823;42.662;23.352;2023-05-10T03:49:45;95012.78;;;6.13;93.72
41078;BME280;26823;42.662;23.352;2023-05-10T03:52:11;95019.59;;;6.21;94.50
41078;BME280;26823;42.662;23.352;2023-05-10T03:54:37;95025.88;;;6.10;95.30
41078;BME280;26823;42.662;23.352;2023-05-10T03:57:03;95022.19;;;5.99;94.15
41078;BME280;26823;42.662;23.352;2023-05-10T03:59:28;95023.38;;;6.03;94.79
41078;BME280;26823;42.662;23.352;2023-05-10T04:01:54;95021.56;;;6.09;95.08
41078;BME280;26823;42.662;23.352;2023-05-10T04:04:19;95025.22;;;6.19;94.79
41078;BME280;26823;42.662;23.352;2023-05-10T04:06:48;95029.13;;;6.29;94.81
41078;BME280;26823;42.662;23.352;2023-05-10T04:09:16;95022.47;;;6.14;93.47
41078;BME280;26823;42.662;23.352;2023-05-10T04:11:42;95032.38;;;6.31;93.30
41078;BME280;26823;42.662;23.352;2023-05-10T04:14:08;95026.69;;;6.27;93.45
41078;BME280;26823;42.662;23.352;2023-05-10T04:16:34;95023.34;;;6.20;93.63
41078;BME280;26823;42.662;23.352;2023-05-10T04:18:59;95029.84;;;6.24;92.51
41078;BME280;26823;42.662;23.352;2023-05-10T04:21:25;95034.75;;;6.27;92.90
41078;BME280;26823;42.662;23.352;2023-05-10T04:23:50;95052.06;;;6.36;92.33
41078;BME280;26823;42.662;23.352;2023-05-10T04:26:16;95035.03;;;6.48;91.48
41078;BME280;26823;42.662;23.352;2023-05-10T04:28:41;95034.91;;;6.60;92.04
41078;BME280;26823;42.662;23.352;2023-05-10T04:31:08;95041.78;;;6.50;91.67
41078;BME280;26823;42.662;23.352;2023-05-10T04:33:35;95039.91;;;6.51;92.82
41078;BME280;26823;42.662;23.352;2023-05-10T04:36:01;95020.31;;;6.33;92.26
41078;BME280;26823;42.662;23.352;2023-05-10T04:38:27;95045.81;;;6.31;91.67
41078;BME280;26823;42.662;23.352;2023-05-10T04:40:53;95043.84;;;6.09;92.83
41078;BME280;26823;42.662;23.352;2023-05-10T04:43:18;95040.84;;;6.06;93.59
41078;BME280;26823;42.662;23.352;2023-05-10T04:45:44;95038.97;;;6.06;94.12
41078;BME280;26823;42.662;23.352;2023-05-10T04:48:09;95039.22;;;6.04;94.75
41078;BME280;26823;42.662;23.352;2023-05-10T04:50:35;95034.09;;;6.03;94.55
41078;BME280;26823;42.662;23.352;2023-05-10T04:53:00;95036.53;;;6.04;94.81
41078;BME280;26823;42.662;23.352;2023-05-10T04:55:26;95024.31;;;5.97;94.48
41078;BME280;26823;42.662;23.352;2023-05-10T04:57:52;95037.84;;;6.02;95.38
41078;BME280;26823;42.662;23.352;2023-05-10T05:00:18;95036.22;;;6.01;95.15
41078;BME280;26823;42.662;23.352;2023-05-10T05:02:44;95032.22;;;6.03;94.08
41078;BME280;26823;42.662;23.352;2023-05-10T05:05:11;95040.09;;;6.10;95.19
41078;BME280;26823;42.662;23.352;2023-05-10T05:07:36;95036.53;;;6.04;95.49
41078;BME280;26823;42.662;23.352;2023-05-10T05:10:02;95038.94;;;6.23;95.41
41078;BME280;26823;42.662;23.352;2023-05-10T05:12:28;95033.94;;;6.10;95.07
41078;BME280;26823;42.662;23.352;2023-05-10T05:14:53;95040.50;;;6.19;95.28
41078;BME280;26823;42.662;23.352;2023-05-10T05:17:18;95053.94;;;6.19;95.67
41078;BME280;26823;42.662;23.352;2023-05-10T05:19:44;95047.09;;;6.11;95.73
41078;BME280;26823;42.662;23.352;2023-05-10T05:22:09;95041.41;;;6.08;96.47
41078;BME280;26823;42.662;23.352;2023-05-10T05:24:35;95052.09;;;6.19;95.57
41078;BME280;26823;42.662;23.352;2023-05-10T05:27:02;95052.31;;;6.18;96.09
41078;BME280;26823;42.662;23.352;2023-05-10T05:29:28;95055.81;;;6.35;95.87
41078;BME280;26823;42.662;23.352;2023-05-10T05:31:53;95051.47;;;6.34;95.66
41078;BME280;26823;42.662;23.352;2023-05-10T05:34:18;95057.34;;;6.31;95.93
41078;BME280;26823;42.662;23.352;2023-05-10T05:36:45;95029.13;;;6.12;95.95
41078;BME280;26823;42.662;23.352;2023-05-10T05:39:11;95062.81;;;6.36;96.19
41078;BME280;26823;42.662;23.352;2023-05-10T05:41:36;95058.66;;;6.29;96.06
41078;BME280;26823;42.662;23.352;2023-05-10T05:44:01;95066.53;;;6.35;96.97
41078;BME280;26823;42.662;23.352;2023-05-10T05:46:27;95059.38;;;6.24;97.28
41078;BME280;26823;42.662;23.352;2023-05-10T05:48:52;95060.78;;;6.27;97.78
41078;BME280;26823;42.662;23.352;2023-05-10T05:51:18;95062.16;;;6.29;98.65
41078;BME280;26823;42.662;23.352;2023-05-10T05:53:43;95056.72;;;6.41;98.79
41078;BME280;26823;42.662;23.352;2023-05-10T05:56:08;95058.00;;;6.39;97.81
41078;BME280;26823;42.662;23.352;2023-05-10T05:58:34;95076.38;;;6.64;98.63
41078;BME280;26823;42.662;23.352;2023-05-10T06:01:00;95065.09;;;6.45;99.18
41078;BME280;26823;42.662;23.352;2023-05-10T06:03:26;95061.00;;;6.42;100.00
41078;BME280;26823;42.662;23.352;2023-05-10T06:05:51;95074.09;;;6.56;100.00
41078;BME280;26823;42.662;23.352;2023-05-10T06:08:17;95067.94;;;6.55;100.00
41078;BME280;26823;42.662;23.352;2023-05-10T06:10:42;95071.59;;;6.32;100.00
41078;BME280;26823;42.662;23.352;2023-05-10T06:13:08;95062.25;;;6.17;100.00
41078;BME280;26823;42.662;23.352;2023-05-10T06:15:33;95078.28;;;6.29;100.00
41078;BME280;26823;42.662;23.352;2023-05-10T06:17:59;95074.19;;;6.27;100.00
41078;BME280;26823;42.662;23.352;2023-05-10T06:20:25;95058.44;;;6.13;100.00
41078;BME280;26823;42.662;23.352;2023-05-10T06:22:50;95074.28;;;6.15;100.00
41078;BME280;26823;42.662;23.352;2023-05-10T06:25:16;95075.59;;;6.29;100.00
41078;BME280;26823;42.662;23.352;2023-05-10T06:27:43;95083.31;;;6.26;100.00
41078;BME280;26823;42.662;23.352;2023-05-10T06:30:09;95077.13;;;6.25;100.00
41078;BME280;26823;42.662;23.352;2023-05-10T06:32:34;95087.78;;;6.37;100.00
41078;BME280;26823;42.662;23.352;2023-05-10T06:35:00;95073.41;;;6.26;99.18
41078;BME280;26823;42.662;23.352;2023-05-10T06:37:25;95079.66;;;6.32;99.40
41078;BME280;26823;42.662;23.352;2023-05-10T06:39:51;95089.44;;;6.55;100.00
41078;BME280;26823;42.662;23.352;2023-05-10T06:42:16;95094.03;;;6.60;100.00
41078;BME280;26823;42.662;23.352;2023-05-10T06:44:42;95081.91;;;6.74;99.71
41078;BME280;26823;42.662;23.352;2023-05-10T06:47:08;95079.69;;;6.71;97.01
41078;BME280;26823;42.662;23.352;2023-05-10T06:49:34;95060.41;;;6.57;97.10
41078;BME280;26823;42.662;23.352;2023-05-10T06:51:59;95088.66;;;6.77;96.96
41078;BME280;26823;42.662;23.352;2023-05-10T06:54:25;95061.19;;;6.75;96.29
41078;BME280;26823;42.662;23.352;2023-05-10T06:56:57;95082.81;;;7.02;94.92
41078;BME280;26823;42.662;23.352;2023-05-10T06:59:22;95082.03;;;6.84;95.85
41078;BME280;26823;42.662;23.352;2023-05-10T07:01:49;95088.00;;;6.87;96.14
41078;BME280;26823;42.662;23.352;2023-05-10T07:04:14;95075.94;;;6.89;95.63
41078;BME280;26823;42.662;23.352;2023-05-10T07:06:39;95067.16;;;6.77;94.85
41078;BME280;26823;42.662;23.352;2023-05-10T07:09:05;95078.91;;;6.93;94.54
41078;BME280;26823;42.662;23.352;2023-05-10T07:11:30;95089.91;;;6.91;93.39
41078;BME280;26823;42.662;23.352;2023-05-10T07:13:56;95094.94;;;7.05;93.50
41078;BME280;26823;42.662;23.352;2023-05-10T07:16:21;95089.78;;;6.81;92.03
41078;BME280;26823;42.662;23.352;2023-05-10T07:18:47;95091.97;;;6.84;93.38
41078;BME280;26823;42.662;23.352;2023-05-10T07:21:12;95071.63;;;6.71;91.24
41078;BME280;26823;42.662;23.352;2023-05-10T07:23:38;95085.97;;;6.60;91.62
41078;BME280;26823;42.662;23.352;2023-05-10T07:26:03;95096.22;;;6.80;91.72
41078;BME280;26823;42.662;23.352;2023-05-10T07:28:29;95086.50;;;6.96;91.22
41078;BME280;26823;42.662;23.352;2023-05-10T07:30:54;95089.69;;;7.15;90.57
41078;BME280;26823;42.662;23.352;2023-05-10T07:33:20;95093.00;;;7.22;89.79
41078;BME280;26823;42.662;23.352;2023-05-10T07:35:45;95086.56;;;7.01;89.97
41078;BME280;26823;42.662;23.352;2023-05-10T07:38:10;95113.53;;;7.28;89.68
41078;BME280;26823;42.662;23.352;2023-05-10T07:40:36;95099.56;;;7.09;90.92
41078;BME280;26823;42.662;23.352;2023-05-10T07:43:01;95080.19;;;7.07;90.16
41078;BME280;26823;42.662;23.352;2023-05-10T07:45:27;95107.50;;;6.99;89.77
41078;BME280;26823;42.662;23.352;2023-05-10T07:47:53;95101.38;;;7.04;89.67
41078;BME280;26823;42.662;23.352;2023-05-10T07:50:18;95105.56;;;6.94;91.20
41078;BME280;26823;42.662;23.352;2023-05-10T07:52:44;95099.31;;;7.11;90.12
41078;BME280;26823;42.662;23.352;2023-05-10T07:55:09;95103.06;;;7.10;89.75
41078;BME280;26823;42.662;23.352;2023-05-10T07:57:35;95108.41;;;7.05;89.71
41078;BME280;26823;42.662;23.352;2023-05-10T08:00:01;95105.31;;;7.18;89.97
41078;BME280;26823;42.662;23.352;2023-05-10T08:02:27;95104.44;;;7.12;90.59
41078;BME280;26823;42.662;23.352;2023-05-10T08:04:52;95107.63;;;7.09;90.53
41078;BME280;26823;42.662;23.352;2023-05-10T08:07:18;95103.84;;;7.27;89.32
41078;BME280;26823;42.662;23.352;2023-05-10T08:09:43;95106.72;;;7.43;89.19
41078;BME280;26823;42.662;23.352;2023-05-10T08:12:15;95116.03;;;7.35;88.80
41078;BME280;26823;42.662;23.352;2023-05-10T08:14:47;95106.47;;;7.22;88.68
41078;BME280;26823;42.662;23.352;2023-05-10T08:17:12;95095.66;;;7.17;88.66
41078;BME280;26823;42.662;23.352;2023-05-10T08:19:37;95103.69;;;7.39;88.44
41078;BME280;26823;42.662;23.352;2023-05-10T08:22:03;95117.31;;;7.55;88.52
41078;BME280;26823;42.662;23.352;2023-05-10T08:24:28;95117.16;;;7.61;87.08
41078;BME280;26823;42.662;23.352;2023-05-10T08:26:53;95122.97;;;7.53;87.77
41078;BME280;26823;42.662;23.352;2023-05-10T08:29:19;95121.16;;;7.59;88.12
41078;BME280;26823;42.662;23.352;2023-05-10T08:31:44;95121.41;;;7.57;88.38
41078;BME280;26823;42.662;23.352;2023-05-10T08:34:10;95111.56;;;7.46;88.22
41078;BME280;26823;42.662;23.352;2023-05-10T08:36:35;95122.41;;;7.29;89.22
41078;BME280;26823;42.662;23.352;2023-05-10T08:39:01;95118.16;;;7.33;89.13
41078;BME280;26823;42.662;23.352;2023-05-10T08:41:27;95108.00;;;7.18;90.19
41078;BME280;26823;42.662;23.352;2023-05-10T08:43:53;95118.97;;;7.33;90.89
41078;BME280;26823;42.662;23.352;2023-05-10T08:46:20;95118.03;;;7.23;90.69
41078;BME280;26823;42.662;23.352;2023-05-10T08:48:48;95085.75;;;7.23;91.96
41078;BME280;26823;42.662;23.352;2023-05-10T08:51:22;95116.91;;;7.41;92.12
41078;BME280;26823;42.662;23.352;2023-05-10T08:53:51;95126.53;;;7.37;91.36
41078;BME280;26823;42.662;23.352;2023-05-10T08:56:17;95123.13;;;7.41;92.10
41078;BME280;26823;42.662;23.352;2023-05-10T08:58:43;95117.66;;;7.36;92.07
41078;BME280;26823;42.662;23.352;2023-05-10T09:01:09;95113.75;;;7.27;92.66
41078;BME280;26823;42.662;23.352;2023-05-10T09:03:38;95121.91;;;7.32;92.37
41078;BME280;26823;42.662;23.352;2023-05-10T09:06:03;95126.78;;;7.13;92.23
41078;BME280;26823;42.662;23.352;2023-05-10T09:08:30;95118.59;;;7.47;92.97
41078;BME280;26823;42.662;23.352;2023-05-10T09:10:56;95123.09;;;7.63;92.16
41078;BME280;26823;42.662;23.352;2023-05-10T09:13:23;95112.72;;;7.50;91.71
41078;BME280;26823;42.662;23.352;2023-05-10T09:15:49;95122.03;;;7.42;92.15
41078;BME280;26823;42.662;23.352;2023-05-10T09:18:15;95115.94;;;7.52;91.72
41078;BME280;26823;42.662;23.352;2023-05-10T09:20:40;95118.28;;;7.43;91.48
41078;BME280;26823;42.662;23.352;2023-05-10T09:23:06;95114.50;;;7.66;90.76
41078;BME280;26823;42.662;23.352;2023-05-10T09:25:32;95118.91;;;7.73;91.16
41078;BME280;26823;42.662;23.352;2023-05-10T09:28:01;95121.31;;;8.02;91.25
41078;BME280;26823;42.662;23.352;2023-05-10T09:30:29;95114.81;;;7.97;89.89
41078;BME280;26823;42.662;23.352;2023-05-10T09:32:56;95109.81;;;7.57;90.21
41078;BME280;26823;42.662;23.352;2023-05-10T09:35:24;95101.53;;;7.63;89.04
41078;BME280;26823;42.662;23.352;2023-05-10T09:37:52;95104.22;;;7.86;88.93
41078;BME280;26823;42.662;23.352;2023-05-10T09:40:26;95110.31;;;8.03;88.89
41078;BME280;26823;42.662;23.352;2023-05-10T09:45:32;95099.41;;;7.93;88.10
41078;BME280;26823;42.662;23.352;2023-05-10T09:47:58;95118.56;;;8.24;87.38
41078;BME280;26823;42.662;23.352;2023-05-10T09:50:25;95111.13;;;8.36;86.25
41078;BME280;26823;42.662;23.352;2023-05-10T09:52:58;95107.13;;;8.11;86.73
41078;BME280;26823;42.662;23.352;2023-05-10T09:55:26;95099.22;;;8.32;87.54
41078;BME280;26823;42.662;23.352;2023-05-10T09:58:02;95093.75;;;8.22;85.31
41078;BME280;26823;42.662;23.352;2023-05-10T10:00:34;95105.97;;;8.35;85.61
41078;BME280;26823;42.662;23.352;2023-05-10T10:03:01;95098.28;;;8.16;84.79
41078;BME280;26823;42.662;23.352;2023-05-10T10:05:34;95081.22;;;8.38;84.02
41078;BME280;26823;42.662;23.352;2023-05-10T10:08:02;95081.75;;;8.02;84.51
41078;BME280;26823;42.662;23.352;2023-05-10T10:10:28;95081.38;;;8.26;83.97
41078;BME280;26823;42.662;23.352;2023-05-10T10:12:55;95075.91;;;8.15;84.47
41078;BME280;26823;42.662;23.352;2023-05-10T10:15:21;95084.00;;;8.15;85.85
41078;BME280;26823;42.662;23.352;2023-05-10T10:17:48;95088.22;;;8.33;84.93
41078;BME280;26823;42.662;23.352;2023-05-10T10:20:14;95066.69;;;8.06;85.19
41078;BME280;26823;42.662;23.352;2023-05-10T10:22:40;95071.00;;;8.07;85.84
41078;BME280;26823;42.662;23.352;2023-05-10T10:25:06;95078.09;;;8.19;85.60
41078;BME280;26823;42.662;23.352;2023-05-10T10:30:40;95082.06;;;8.43;83.53
41078;BME280;26823;42.662;23.352;2023-05-10T10:35:39;95062.31;;;8.32;84.28
41078;BME280;26823;42.662;23.352;2023-05-10T10:38:07;95077.44;;;8.33;83.78
41078;BME280;26823;42.662;23.352;2023-05-10T10:40:33;95071.66;;;8.20;84.44
41078;BME280;26823;42.662;23.352;2023-05-10T10:43:24;95085.94;;;8.53;83.32
41078;BME280;26823;42.662;23.352;2023-05-10T10:46:10;95086.50;;;8.55;84.33
41078;BME280;26823;42.662;23.352;2023-05-10T10:48:36;95079.56;;;8.64;82.72
41078;BME280;26823;42.662;23.352;2023-05-10T10:51:13;95093.16;;;8.85;83.15
41078;BME280;26823;42.662;23.352;2023-05-10T10:53:39;95074.66;;;8.61;81.36
41078;BME280;26823;42.662;23.352;2023-05-10T10:56:13;95070.28;;;8.92;80.08
41078;BME280;26823;42.662;23.352;2023-05-10T10:58:41;95083.22;;;8.95;80.27
41078;BME280;26823;42.662;23.352;2023-05-10T11:01:19;95070.03;;;8.99;78.74
41078;BME280;26823;42.662;23.352;2023-05-10T11:06:29;95080.34;;;9.07;79.51
41078;BME280;26823;42.662;23.352;2023-05-10T11:08:55;95076.22;;;8.94;78.77
41078;BME280;26823;42.662;23.352;2023-05-10T11:11:22;95081.38;;;8.96;79.21
41078;BME280;26823;42.662;23.352;2023-05-10T11:13:47;95071.91;;;8.93;79.62
41078;BME280;26823;42.662;23.352;2023-05-10T11:19:04;95078.22;;;9.14;79.46
41078;BME280;26823;42.662;23.352;2023-05-10T11:21:31;95078.72;;;9.06;79.94
41078;BME280;26823;42.662;23.352;2023-05-10T11:23:58;95056.06;;;8.59;82.01
41078;BME280;26823;42.662;23.352;2023-05-10T11:26:30;95090.78;;;8.93;82.41
41078;BME280;26823;42.662;23.352;2023-05-10T11:28:56;95061.38;;;8.87;81.05
41078;BME280;26823;42.662;23.352;2023-05-10T11:31:22;95071.63;;;8.95;81.76
41078;BME280;26823;42.662;23.352;2023-05-10T11:33:53;95090.88;;;9.09;80.79
41078;BME280;26823;42.662;23.352;2023-05-10T11:36:32;95080.09;;;9.14;80.33
41078;BME280;26823;42.662;23.352;2023-05-10T11:38:58;95085.78;;;9.18;79.91
41078;BME280;26823;42.662;23.352;2023-05-10T11:41:24;95076.59;;;9.13;80.21
41078;BME280;26823;42.662;23.352;2023-05-10T11:43:51;95072.56;;;9.16;81.59
41078;BME280;26823;42.662;23.352;2023-05-10T11:46:19;95081.09;;;8.97;81.04
41078;BME280;26823;42.662;23.352;2023-05-10T11:48:46;95088.03;;;8.83;82.80
41078;BME280;26823;42.662;23.352;2023-05-10T11:51:12;95063.16;;;8.71;82.18
41078;BME280;26823;42.662;23.352;2023-05-10T11:53:38;95073.28;;;8.96;82.77
41078;BME280;26823;42.662;23.352;2023-05-10T11:56:12;95081.41;;;9.06;81.70
41078;BME280;26823;42.662;23.352;2023-05-10T11:58:39;95074.03;;;8.86;82.06
41078;BME280;26823;42.662;23.352;2023-05-10T12:01:07;95084.06;;;8.96;81.88
41078;BME280;26823;42.662;23.352;2023-05-10T12:03:33;95073.00;;;8.97;80.67
41078;BME280;26823;42.662;23.352;2023-05-10T12:05:59;95070.53;;;8.91;81.37
41078;BME280;26823;42.662;23.352;2023-05-10T12:08:27;95069.41;;;8.81;82.03
41078;BME280;26823;42.662;23.352;2023-05-10T12:11:13;95037.34;;;8.90;81.66
41078;BME280;26823;42.662;23.352;2023-05-10T12:13:43;95075.47;;;9.09;81.19
41078;BME280;26823;42.662;23.352;2023-05-10T12:16:16;95075.59;;;9.30;80.90
41078;BME280;26823;42.662;23.352;2023-05-10T12:18:42;95062.38;;;9.34;80.62
41078;BME280;26823;42.662;23.352;2023-05-10T12:21:10;95060.75;;;9.33;80.99
41078;BME280;26823;42.662;23.352;2023-05-10T12:23:36;95065.91;;;9.39;79.64
41078;BME280;26823;42.662;23.352;2023-05-10T12:26:03;95058.00;;;9.17;80.58
41078;BME280;26823;42.662;23.352;2023-05-10T12:28:32;95044.25;;;9.24;79.58
41078;BME280;26823;42.662;23.352;2023-05-10T12:30:59;95050.78;;;9.38;79.68
41078;BME280;26823;42.662;23.352;2023-05-10T12:33:25;95046.50;;;9.53;79.61
41078;BME280;26823;42.662;23.352;2023-05-10T12:35:52;95054.31;;;9.49;79.31
41078;BME280;26823;42.662;23.352;2023-05-10T12:38:41;95057.53;;;9.41;78.98
41078;BME280;26823;42.662;23.352;2023-05-10T12:41:14;95055.88;;;9.35;79.36
41078;BME280;26823;42.662;23.352;2023-05-10T12:43:40;95049.13;;;9.37;78.75
41078;BME280;26823;42.662;23.352;2023-05-10T12:46:14;95051.28;;;9.25;79.28
41078;BME280;26823;42.662;23.352;2023-05-10T12:48:40;95053.47;;;9.38;79.30
41078;BME280;26823;42.662;23.352;2023-05-10T12:51:07;95040.53;;;9.40;77.78
41078;BME280;26823;42.662;23.352;2023-05-10T12:53:38;95048.06;;;9.38;78.01
41078;BME280;26823;42.662;23.352;2023-05-10T12:56:04;95046.75;;;9.46;78.58
41078;BME280;26823;42.662;23.352;2023-05-10T12:58:30;95041.13;;;9.58;77.90
41078;BME280;26823;42.662;23.352;2023-05-10T13:00:55;95045.66;;;9.47;78.68
41078;BME280;26823;42.662;23.352;2023-05-10T13:03:22;95037.34;;;9.59;78.95
41078;BME280;26823;42.662;23.352;2023-05-10T13:05:47;95031.66;;;9.50;77.58
41078;BME280;26823;42.662;23.352;2023-05-10T13:08:12;95020.78;;;9.35;78.97
41078;BME280;26823;42.662;23.352;2023-05-10T13:10:38;95033.25;;;9.51;78.49
41078;BME280;26823;42.662;23.352;2023-05-10T13:13:04;95035.97;;;9.56;78.74
41078;BME280;26823;42.662;23.352;2023-05-10T13:15:30;95027.00;;;9.35;79.24
41078;BME280;26823;42.662;23.352;2023-05-10T13:17:56;95028.88;;;9.35;79.44
41078;BME280;26823;42.662;23.352;2023-05-10T13:20:21;95022.69;;;9.39;79.36
41078;BME280;26823;42.662;23.352;2023-05-10T13:22:47;95023.50;;;9.35;79.73
41078;BME280;26823;42.662;23.352;2023-05-10T13:25:12;95021.06;;;9.33;80.09
41078;BME280;26823;42.662;23.352;2023-05-10T13:27:40;95015.91;;;9.21;81.02
41078;BME280;26823;42.662;23.352;2023-05-10T13:30:09;95002.44;;;9.37;79.55
41078;BME280;26823;42.662;23.352;2023-05-10T13:32:36;95015.94;;;9.32;79.40
41078;BME280;26823;42.662;23.352;2023-05-10T13:35:02;95005.59;;;9.13;80.14